createdAt,value
2022-09-29T00:02:45.782Z,14.20
2022-09-29T00:05:55.081Z,13.23
2022-09-29T00:08:55.638Z,12.30
2022-09-29T00:12:00.005Z,13.57
2022-09-29T00:14:57.612Z,14.90
2022-09-29T00:18:22.627Z,12.33
2022-09-29T00:21:28.013Z,13.93
2022-09-29T00:27:53.120Z,13.87
2022-09-29T00:30:55.018Z,12.30
2022-09-29T00:34:14.120Z,13.70
2022-09-29T00:37:32.045Z,13.03
2022-09-29T00:44:11.187Z,13.50
2022-09-29T00:47:16.783Z,13.40
2022-09-29T00:50:25.823Z,13.40
2022-09-29T00:53:37.410Z,14.30
2022-09-29T00:56:31.566Z,14.67
2022-09-29T00:59:38.850Z,13.10
2022-09-29T01:02:41.613Z,12.33
2022-09-29T01:05:39.395Z,12.07
2022-09-29T01:08:51.590Z,12.07
2022-09-29T01:11:58.071Z,11.93
2022-09-29T01:15:25.014Z,14.73
2022-09-29T01:22:40.408Z,11.40
2022-09-29T01:25:55.818Z,12.73
2022-09-29T01:29:25.946Z,12.67
2022-09-29T01:32:44.611Z,12.07
2022-09-29T01:36:15.978Z,13.20
2022-09-29T01:39:42.186Z,12.77
2022-09-29T01:46:44.151Z,11.87
2022-09-29T01:49:48.779Z,11.43
2022-09-29T01:52:51.595Z,14.50
2022-09-29T01:56:18.624Z,11.27
2022-09-29T01:59:24.051Z,11.27
2022-09-29T02:02:49.343Z,12.10
2022-09-29T02:05:59.102Z,11.03
2022-09-29T02:09:00.948Z,11.90
2022-09-29T02:12:09.317Z,12.20
2022-09-29T02:15:17.666Z,13.87
2022-09-29T02:18:25.463Z,12.87
2022-09-29T02:21:28.158Z,12.90
2022-09-29T02:24:39.468Z,12.10
2022-09-29T02:27:45.034Z,11.40
2022-09-29T02:31:12.091Z,9.77
2022-09-29T02:34:29.287Z,12.17
2022-09-29T02:37:56.353Z,10.80
2022-09-29T02:40:55.658Z,12.43
2022-09-29T02:44:26.386Z,10.10
2022-09-29T02:47:52.818Z,11.20
2022-09-29T02:51:22.812Z,10.30
2022-09-29T02:54:56.772Z,13.33
2022-09-29T02:58:07.794Z,11.63
2022-09-29T03:01:20.238Z,13.27
2022-09-29T03:04:22.994Z,10.83
2022-09-29T03:07:20.859Z,13.33
2022-09-29T03:10:30.157Z,10.40
2022-09-29T03:17:04.676Z,10.70
2022-09-29T03:20:02.801Z,10.30
2022-09-29T03:23:18.608Z,11.33
2022-09-29T03:26:24.898Z,11.50
2022-09-29T03:29:22.194Z,10.77
2022-09-29T03:32:31.733Z,10.03
2022-09-29T03:35:29.867Z,9.50
2022-09-29T03:38:29.684Z,13.50
2022-09-29T03:42:03.039Z,11.27
2022-09-29T03:45:07.239Z,10.87
2022-09-29T03:51:22.841Z,9.43
2022-09-29T03:54:29.258Z,11.50
2022-09-29T03:57:44.002Z,10.43
2022-09-29T04:01:20.515Z,10.23
2022-09-29T04:04:42.234Z,10.37
2022-09-29T04:07:42.965Z,11.13
2022-09-29T04:10:45.404Z,10.23
2022-09-29T04:13:47.475Z,10.97
2022-09-29T04:17:01.587Z,10.50
2022-09-29T04:20:07.398Z,10.53
2022-09-29T04:23:04.564Z,11.70
2022-09-29T04:26:04.257Z,11.03
2022-09-29T04:29:09.721Z,12.20
2022-09-29T04:32:08.911Z,11.93
2022-09-29T04:35:18.605Z,14.30
2022-09-29T04:38:21.199Z,14.30
2022-09-29T04:41:31.105Z,16.47
2022-09-29T04:44:59.148Z,14.67
2022-09-29T04:48:07.800Z,15.60
2022-09-29T04:54:15.543Z,15.80
2022-09-29T04:57:17.806Z,19.50
2022-09-29T05:00:19.777Z,17.57
2022-09-29T05:03:44.816Z,15.17
2022-09-29T05:06:53.975Z,18.90
2022-09-29T05:10:07.741Z,18.90
2022-09-29T05:13:17.381Z,18.50
2022-09-29T05:16:11.654Z,16.80
2022-09-29T05:19:20.929Z,17.27
2022-09-29T05:22:31.676Z,19.20
2022-09-29T05:26:05.799Z,18.80
2022-09-29T05:29:01.456Z,21.00
2022-09-29T05:32:17.802Z,19.57
2022-09-29T05:35:22.513Z,21.60
2022-09-29T05:38:24.077Z,18.47
2022-09-29T05:41:29.840Z,15.70
2022-09-29T05:44:47.955Z,19.30
2022-09-29T05:48:08.046Z,19.77
2022-09-29T05:51:23.522Z,22.60
2022-09-29T05:57:48.647Z,21.90
2022-09-29T06:00:40.890Z,19.47
2022-09-29T06:03:33.450Z,23.23
2022-09-29T06:06:32.083Z,21.00
2022-09-29T06:09:25.892Z,22.10
2022-09-29T06:12:14.863Z,21.43
2022-09-29T06:15:10.817Z,21.43
2022-09-29T06:18:01.018Z,23.40
2022-09-29T06:20:52.256Z,23.07
2022-09-29T06:23:44.714Z,20.90
2022-09-29T06:26:42.324Z,20.10
2022-09-29T06:29:35.336Z,20.60
2022-09-29T06:32:26.240Z,20.70
2022-09-29T06:35:41.336Z,19.97
2022-09-29T06:38:32.362Z,23.57
2022-09-29T06:41:30.064Z,20.80
2022-09-29T06:44:20.258Z,19.90
2022-09-29T06:47:14.383Z,20.40
2022-09-29T06:50:12.428Z,20.07
2022-09-29T06:53:26.953Z,23.07
2022-09-29T06:56:22.471Z,21.27
2022-09-29T06:59:18.013Z,20.13
2022-09-29T07:02:10.229Z,22.77
2022-09-29T07:05:01.365Z,21.90
2022-09-29T07:08:00.676Z,20.50
2022-09-29T07:10:58.457Z,20.40
2022-09-29T07:13:54.409Z,22.27
2022-09-29T07:16:45.248Z,23.17
2022-09-29T07:19:35.651Z,21.60
2022-09-29T07:22:24.040Z,19.80
2022-09-29T07:25:23.015Z,19.10
2022-09-29T07:28:25.900Z,20.23
2022-09-29T07:31:18.575Z,21.27
2022-09-29T07:34:13.335Z,18.40
2022-09-29T07:37:11.677Z,17.10
2022-09-29T07:40:09.384Z,19.63
2022-09-29T07:43:04.780Z,18.33
2022-09-29T07:45:56.195Z,17.43
2022-09-29T07:48:54.728Z,17.40
2022-09-29T07:51:46.756Z,18.20
2022-09-29T07:54:41.353Z,17.50
2022-09-29T07:57:31.675Z,17.80
2022-09-29T08:00:23.902Z,22.80
2022-09-29T08:03:16.131Z,20.47
2022-09-29T08:06:17.688Z,19.93
2022-09-29T08:09:13.478Z,21.03
2022-09-29T08:12:08.922Z,18.90
2022-09-29T08:15:01.775Z,18.13
2022-09-29T08:17:54.776Z,18.23
2022-09-29T08:20:49.360Z,18.23
2022-09-29T08:23:42.926Z,16.77
2022-09-29T08:26:42.459Z,17.17
2022-09-29T08:29:43.926Z,17.73
2022-09-29T08:32:38.033Z,17.17
2022-09-29T08:35:36.948Z,17.67
2022-09-29T08:38:41.976Z,16.33
2022-09-29T08:41:53.094Z,17.60
2022-09-29T08:44:52.874Z,17.10
2022-09-29T08:47:47.887Z,16.50
2022-09-29T08:50:42.089Z,17.07
2022-09-29T08:53:36.753Z,16.93
2022-09-29T08:56:28.922Z,16.00
2022-09-29T08:59:28.874Z,16.30
2022-09-29T09:02:59.201Z,16.83
2022-09-29T09:06:07.124Z,14.60
2022-09-29T09:09:32.181Z,14.93
2022-09-29T09:12:59.768Z,15.27
2022-09-29T09:16:10.389Z,13.73
2022-09-29T09:19:21.816Z,14.07
2022-09-29T09:22:22.089Z,14.63
2022-09-29T09:25:31.455Z,13.50
2022-09-29T09:28:27.480Z,13.83
2022-09-29T09:31:25.180Z,14.43
2022-09-29T09:34:21.859Z,15.03
2022-09-29T09:37:23.563Z,15.20
2022-09-29T09:40:21.411Z,14.97
2022-09-29T09:43:15.461Z,14.37
2022-09-29T09:46:15.593Z,14.93
2022-09-29T09:49:24.006Z,14.20
2022-09-29T09:52:16.871Z,14.20
2022-09-29T09:55:18.559Z,14.73
2022-09-29T09:58:22.465Z,14.03
2022-09-29T10:01:14.271Z,13.83
2022-09-29T10:04:05.435Z,13.13
2022-09-29T10:06:57.972Z,12.30
2022-09-29T10:09:49.158Z,12.57
2022-09-29T10:12:43.289Z,12.67
2022-09-29T10:15:37.121Z,14.33
2022-09-29T10:18:47.759Z,14.50
2022-09-29T10:21:43.695Z,12.80
2022-09-29T10:24:33.153Z,13.30
2022-09-29T10:27:39.199Z,13.40
2022-09-29T10:30:36.321Z,11.70
2022-09-29T10:33:32.736Z,13.13
2022-09-29T10:36:23.681Z,12.13
2022-09-29T10:39:34.995Z,12.40
2022-09-29T10:42:30.085Z,11.97
2022-09-29T10:45:22.640Z,13.60
2022-09-29T10:48:18.957Z,12.30
2022-09-29T10:51:31.831Z,12.20
2022-09-29T10:54:31.306Z,12.13
2022-09-29T10:57:27.627Z,11.33
2022-09-29T11:00:38.857Z,11.00
2022-09-29T11:03:30.231Z,11.40
2022-09-29T11:06:32.383Z,10.40
2022-09-29T11:09:41.318Z,11.07
2022-09-29T11:12:43.742Z,10.70
2022-09-29T11:15:43.336Z,11.47
2022-09-29T11:18:39.205Z,10.37
2022-09-29T11:22:06.723Z,13.03
2022-09-29T11:25:34.398Z,10.50
2022-09-29T11:28:49.262Z,10.20
2022-09-29T11:31:46.300Z,18.23
2022-09-29T11:34:49.043Z,13.50
2022-09-29T11:37:53.411Z,12.30
2022-09-29T11:41:01.749Z,11.50
2022-09-29T11:43:55.193Z,12.07
2022-09-29T11:47:00.108Z,11.03
2022-09-29T11:50:06.984Z,11.43
2022-09-29T11:53:08.023Z,9.80
2022-09-29T11:56:29.075Z,9.97
2022-09-29T11:59:44.510Z,10.90
2022-09-29T12:03:20.894Z,10.37
2022-09-29T12:06:42.550Z,9.40
2022-09-29T12:09:58.036Z,9.17
2022-09-29T12:13:09.968Z,9.77
2022-09-29T12:16:09.617Z,9.77
2022-09-29T12:19:03.017Z,9.53
2022-09-29T12:22:01.465Z,11.00
2022-09-29T12:24:55.878Z,9.30
2022-09-29T12:27:53.847Z,8.70
2022-09-29T12:30:54.810Z,9.70
2022-09-29T12:33:57.062Z,8.60
2022-09-29T12:36:53.692Z,8.43
2022-09-29T12:39:54.987Z,8.80
2022-09-29T12:43:00.124Z,6.80
2022-09-29T12:45:56.808Z,6.20
2022-09-29T12:49:00.164Z,7.10
2022-09-29T12:51:55.765Z,6.07
2022-09-29T12:54:53.846Z,6.13
2022-09-29T12:57:45.257Z,6.23
2022-09-29T13:00:36.915Z,6.40
2022-09-29T13:03:55.386Z,6.50
2022-09-29T13:07:02.474Z,7.50
2022-09-29T13:10:23.324Z,8.10
2022-09-29T13:13:54.092Z,7.60
2022-09-29T13:17:00.891Z,8.53
2022-09-29T13:20:26.135Z,9.60
2022-09-29T13:23:58.825Z,10.20
2022-09-29T13:27:11.127Z,9.37
2022-09-29T13:30:09.324Z,9.90
2022-09-29T13:33:08.316Z,10.87
2022-09-29T13:35:59.631Z,9.93
2022-09-29T13:38:57.055Z,11.07
2022-09-29T13:41:45.206Z,10.57
2022-09-29T13:44:36.188Z,11.70
2022-09-29T13:47:36.495Z,11.63
2022-09-29T13:50:50.739Z,12.50
2022-09-29T13:53:44.238Z,12.70
2022-09-29T13:56:32.487Z,13.03
2022-09-29T13:59:28.188Z,13.30
2022-09-29T14:02:32.844Z,12.43
2022-09-29T14:05:49.438Z,12.80
2022-09-29T14:08:51.533Z,13.07
2022-09-29T14:11:42.866Z,13.70
2022-09-29T14:14:37.087Z,12.57
2022-09-29T14:17:32.766Z,12.60
2022-09-29T14:20:26.196Z,12.73
2022-09-29T14:23:16.336Z,12.50
2022-09-29T14:26:10.588Z,13.23
2022-09-29T14:29:07.969Z,12.90
2022-09-29T14:32:02.800Z,14.40
2022-09-29T14:34:54.584Z,15.63
2022-09-29T14:37:45.046Z,13.50
2022-09-29T14:40:39.398Z,14.60
2022-09-29T14:43:39.852Z,15.40
2022-09-29T14:47:10.390Z,14.93
2022-09-29T14:50:32.819Z,13.87
2022-09-29T14:53:52.463Z,14.23
2022-09-29T14:56:52.860Z,17.03
2022-09-29T14:59:57.264Z,15.13
2022-09-29T15:02:59.726Z,14.90
2022-09-29T15:06:12.651Z,15.20
2022-09-29T15:09:02.602Z,14.80
2022-09-29T15:12:04.442Z,13.90
2022-09-29T15:15:01.605Z,14.20
2022-09-29T15:17:55.463Z,13.23
2022-09-29T15:21:03.977Z,15.60
2022-09-29T15:24:20.808Z,13.30
2022-09-29T15:27:19.785Z,12.87
2022-09-29T15:30:24.964Z,14.37
2022-09-29T15:33:35.124Z,13.10
2022-09-29T15:36:34.080Z,14.37
2022-09-29T15:39:48.553Z,13.50
2022-09-29T15:42:39.877Z,13.50
2022-09-29T15:45:33.150Z,12.47
2022-09-29T15:48:29.131Z,13.70
2022-09-29T15:51:22.130Z,13.90
2022-09-29T15:54:13.493Z,13.83
2022-09-29T15:57:19.811Z,14.57
2022-09-29T16:00:58.566Z,14.57
2022-09-29T16:03:58.006Z,13.70
2022-09-29T16:06:52.034Z,14.80
2022-09-29T16:09:40.799Z,14.20
2022-09-29T16:12:33.142Z,13.57
2022-09-29T16:15:27.152Z,13.20
2022-09-29T16:18:26.216Z,13.97
2022-09-29T16:21:20.614Z,14.40
2022-09-29T16:24:20.441Z,13.10
2022-09-29T16:27:42.761Z,13.20
2022-09-29T16:30:38.620Z,11.50
2022-09-29T16:33:33.182Z,13.00
2022-09-29T16:36:38.144Z,11.93
2022-09-29T16:39:30.976Z,13.30
2022-09-29T16:42:31.043Z,13.13
2022-09-29T16:45:33.158Z,11.30
2022-09-29T16:48:24.138Z,11.80
2022-09-29T16:51:38.328Z,12.90
2022-09-29T16:54:31.986Z,11.73
2022-09-29T16:57:29.957Z,11.27
2022-09-29T17:00:19.357Z,11.73
2022-09-29T17:03:14.872Z,11.07
2022-09-29T17:06:05.568Z,12.40
2022-09-29T17:08:55.159Z,11.77
2022-09-29T17:11:48.524Z,12.70
2022-09-29T17:14:39.746Z,13.10
2022-09-29T17:17:36.597Z,12.17
2022-09-29T17:20:36.530Z,12.93
2022-09-29T17:23:27.079Z,12.20
2022-09-29T17:26:38.920Z,12.60
2022-09-29T17:29:35.233Z,15.27
2022-09-29T17:32:27.718Z,15.17
2022-09-29T17:35:28.091Z,14.30
2022-09-29T17:38:25.752Z,14.50
2022-09-29T17:41:22.890Z,15.30
2022-09-29T17:44:16.808Z,16.43
2022-09-29T17:47:27.147Z,16.17
2022-09-29T17:50:26.499Z,17.27
2022-09-29T17:53:22.794Z,16.33
2022-09-29T17:56:22.257Z,17.10
2022-09-29T17:59:14.319Z,16.80
2022-09-29T18:02:05.645Z,20.90
2022-09-29T18:04:55.154Z,18.80
2022-09-29T18:07:44.859Z,17.63
2022-09-29T18:10:44.086Z,16.37
2022-09-29T18:13:34.867Z,16.93
2022-09-29T18:16:24.943Z,16.30
2022-09-29T18:19:17.926Z,17.10
2022-09-29T18:22:10.603Z,17.10
2022-09-29T18:25:09.877Z,16.07
2022-09-29T18:28:02.766Z,16.53
2022-09-29T18:30:56.534Z,15.20
2022-09-29T18:33:44.726Z,16.13
2022-09-29T18:36:57.684Z,15.60
2022-09-29T18:39:49.548Z,15.07
2022-09-29T18:42:47.120Z,16.77
2022-09-29T18:45:38.570Z,15.50
2022-09-29T18:48:26.742Z,16.60
2022-09-29T18:51:21.135Z,15.30
2022-09-29T18:54:14.702Z,14.90
2022-09-29T18:57:04.299Z,14.90
2022-09-29T19:00:01.146Z,14.80
2022-09-29T19:02:52.946Z,14.93
2022-09-29T19:05:47.826Z,15.40
2022-09-29T19:08:53.310Z,15.50
2022-09-29T19:11:49.952Z,14.07
2022-09-29T19:14:45.787Z,14.20
2022-09-29T19:17:35.784Z,13.77
2022-09-29T19:20:26.498Z,13.53
2022-09-29T19:23:19.474Z,12.97
2022-09-29T19:26:13.609Z,13.43
2022-09-29T19:29:07.784Z,12.47
2022-09-29T19:31:57.291Z,13.83
2022-09-29T19:34:45.520Z,12.30
2022-09-29T19:37:59.272Z,12.40
2022-09-29T19:40:58.618Z,11.17
2022-09-29T19:44:01.870Z,11.27
2022-09-29T19:47:15.262Z,11.40
2022-09-29T19:50:51.578Z,12.00
2022-09-29T19:54:11.807Z,10.73
2022-09-29T20:00:33.254Z,11.30
2022-09-29T20:03:32.960Z,10.07
2022-09-29T20:10:13.772Z,10.03
2022-09-29T20:13:12.405Z,10.10
2022-09-29T20:16:25.103Z,9.47
2022-09-29T20:19:47.515Z,9.50
2022-09-29T20:22:52.659Z,8.10
2022-09-29T20:26:22.340Z,8.60
2022-09-29T20:29:34.504Z,7.93
2022-09-29T20:32:55.340Z,8.00
2022-09-29T20:36:10.837Z,8.07
2022-09-29T20:39:14.120Z,6.43
2022-09-29T20:42:29.810Z,7.70
2022-09-29T20:45:43.391Z,7.03
2022-09-29T20:48:45.747Z,6.30
2022-09-29T20:51:58.583Z,7.53
2022-09-29T20:54:58.899Z,7.70
2022-09-29T20:58:23.515Z,6.10
2022-09-29T21:01:24.849Z,6.27
2022-09-29T21:04:50.395Z,6.03
2022-09-29T21:08:06.780Z,6.20
2022-09-29T21:11:43.872Z,6.47
2022-09-29T21:14:43.702Z,5.63
2022-09-29T21:17:52.224Z,5.30
2022-09-29T21:20:55.214Z,4.83
2022-09-29T21:24:06.680Z,5.70
2022-09-29T21:27:10.112Z,4.90
2022-09-29T21:30:09.843Z,4.87
2022-09-29T21:33:11.674Z,5.30
2022-09-29T21:36:15.266Z,5.23
2022-09-29T21:39:23.113Z,4.73
2022-09-29T21:45:56.686Z,5.37
2022-09-29T21:49:22.124Z,4.30
2022-09-29T21:52:32.765Z,4.43
2022-09-29T21:55:35.107Z,4.80
2022-09-29T21:58:30.381Z,5.63
2022-09-29T22:05:04.499Z,4.00
2022-09-29T22:08:11.436Z,4.63
2022-09-29T22:11:16.918Z,4.63
2022-09-29T22:14:28.595Z,4.60
2022-09-29T22:17:45.809Z,4.80
2022-09-29T22:20:47.154Z,8.47
2022-09-29T22:25:17.092Z,4.90
2022-09-29T22:27:15.882Z,5.03
2022-09-29T22:30:23.204Z,5.53
2022-09-29T22:33:41.143Z,4.80
2022-09-29T22:36:41.539Z,4.13
2022-09-29T22:39:45.796Z,5.00
2022-09-29T22:43:11.704Z,5.37
2022-09-29T22:46:14.621Z,5.30
2022-09-29T22:52:38.080Z,5.10
2022-09-29T22:55:42.840Z,5.40
2022-09-29T22:58:54.760Z,5.63
2022-09-29T23:02:03.486Z,5.07
2022-09-29T23:05:05.010Z,6.13
2022-09-29T23:11:38.090Z,5.43
2022-09-29T23:14:48.287Z,5.00
2022-09-29T23:17:50.212Z,5.33
2022-09-29T23:20:48.384Z,7.33
2022-09-29T23:23:55.575Z,5.63
2022-09-29T23:27:10.166Z,5.77
2022-09-29T23:30:15.556Z,6.67
2022-09-29T23:33:11.346Z,5.70
2022-09-29T23:36:25.062Z,6.00
2022-09-29T23:39:42.302Z,5.33
2022-09-29T23:42:40.861Z,5.80
2022-09-29T23:46:10.007Z,5.83
2022-09-29T23:49:21.048Z,6.03
2022-09-29T23:52:37.535Z,8.00
2022-09-29T23:55:43.524Z,5.93
2022-09-29T23:58:43.249Z,6.17
